sensor_id;sensor_type;location;lat;lon;timestamp;pressure;altitude;pressure_sealevel;temperature;humidity
10097;BME280;5087;42.662;23.466;2022-07-23T00:00:21;95638.09;;;16.57;100.00
10097;BME280;5087;42.662;23.466;2022-07-23T00:02:49;95641.09;;;16.39;100.00
10097;BME280;5087;42.662;23.466;2022-07-23T00:05:16;95613.47;;;16.16;100.00
10097;BME280;5087;42.662;23.466;2022-07-23T00:07:43;95642.09;;;16.19;100.00
10097;BME280;5087;42.662;23.466;2022-07-23T00:10:11;95635.63;;;15.98;100.00
10097;BME280;5087;42.662;23.466;2022-07-23T00:12:38;95645.09;;;16.01;100.00
10097;BME280;5087;42.662;23.466;2022-07-23T00:15:07;95652.63;;;15.92;100.00
10097;BME280;5087;42.662;23.466;2022-07-23T00:17:35;95651.72;;;15.88;100.00
10097;BME280;5087;42.662;23.466;2022-07-23T00:20:04;95641.56;;;15.76;100.00
10097;BME280;5087;42.662;23.466;2022-07-23T00:22:32;95637.78;;;15.68;100.00
10097;BME280;5087;42.662;23.466;2022-07-23T00:24:59;95655.81;;;15.69;100.00
10097;BME280;5087;42.662;23.466;2022-07-23T00:27:26;95656.94;;;15.68;100.00
10097;BME280;5087;42.662;23.466;2022-07-23T00:29:53;95652.84;;;15.62;100.00
10097;BME280;5087;42.662;23.466;2022-07-23T00:32:20;95639.84;;;15.46;100.00
10097;BME280;5087;42.662;23.466;2022-07-23T00:34:47;95657.41;;;15.45;100.00
10097;BME280;5087;42.662;23.466;2022-07-23T00:37:16;95646.69;;;15.28;100.00
10097;BME280;5087;42.662;23.466;2022-07-23T00:39:43;95651.16;;;15.32;100.00
10097;BME280;5087;42.662;23.466;2022-07-23T00:42:10;95656.94;;;15.31;100.00
10097;BME280;5087;42.662;23.466;2022-07-23T00:44:37;95649.88;;;15.30;100.00
10097;BME280;5087;42.662;23.466;2022-07-23T00:47:05;95650.78;;;15.34;100.00
10097;BME280;5087;42.662;23.466;2022-07-23T00:49:32;95633.22;;;15.23;100.00
10097;BME280;5087;42.662;23.466;2022-07-23T00:52:01;95644.63;;;15.37;100.00
10097;BME280;5087;42.662;23.466;2022-07-23T00:54:30;95647.03;;;15.39;100.00
10097;BME280;5087;42.662;23.466;2022-07-23T00:56:57;95647.28;;;15.46;100.00
10097;BME280;5087;42.662;23.466;2022-07-23T00:59:25;95644.31;;;15.51;100.00
10097;BME280;5087;42.662;23.466;2022-07-23T01:01:52;95633.38;;;15.39;100.00
10097;BME280;5087;42.662;23.466;2022-07-23T01:04:19;95647.25;;;15.33;100.00
10097;BME280;5087;42.662;23.466;2022-07-23T01:06:46;95651.00;;;15.29;100.00
10097;BME280;5087;42.662;23.466;2022-07-23T01:09:13;95649.88;;;15.30;100.00
10097;BME280;5087;42.662;23.466;2022-07-23T01:11:42;95640.53;;;15.31;100.00
10097;BME280;5087;42.662;23.466;2022-07-23T01:14:13;95649.19;;;15.33;100.00
10097;BME280;5087;42.662;23.466;2022-07-23T01:16:42;95650.09;;;15.37;100.00
10097;BME280;5087;42.662;23.466;2022-07-23T01:19:10;95641.44;;;15.23;100.00
10097;BME280;5087;42.662;23.466;2022-07-23T01:21:38;95641.09;;;15.24;100.00
10097;BME280;5087;42.662;23.466;2022-07-23T01:24:08;95644.75;;;15.16;100.00
10097;BME280;5087;42.662;23.466;2022-07-23T01:26:41;95638.69;;;15.23;100.00
10097;BME280;5087;42.662;23.466;2022-07-23T01:29:09;95638.69;;;15.23;100.00
10097;BME280;5087;42.662;23.466;2022-07-23T01:31:37;95614.75;;;15.07;100.00
10097;BME280;5087;42.662;23.466;2022-07-23T01:34:05;95621.50;;;15.22;100.00
10097;BME280;5087;42.662;23.466;2022-07-23T01:36:33;95625.38;;;15.21;100.00
10097;BME280;5087;42.662;23.466;2022-07-23T01:39:01;95631.84;;;15.29;100.00
10097;BME280;5087;42.662;23.466;2022-07-23T01:41:30;95614.97;;;15.14;100.00
10097;BME280;5087;42.662;23.466;2022-07-23T01:43:58;95619.09;;;15.45;100.00
10097;BME280;5087;42.662;23.466;2022-07-23T01:46:25;95634.63;;;15.41;100.00
10097;BME280;5087;42.662;23.466;2022-07-23T01:48:53;95628.44;;;15.32;100.00
10097;BME280;5087;42.662;23.466;2022-07-23T01:51:40;95633.69;;;15.25;100.00
10097;BME280;5087;42.662;23.466;2022-07-23T01:54:27;95627.53;;;15.40;100.00
10097;BME280;5087;42.662;23.466;2022-07-23T01:56:56;95609.75;;;15.46;100.00
10097;BME280;5087;42.662;23.466;2022-07-23T01:59:24;95631.78;;;15.62;100.00
10097;BME280;5087;42.662;23.466;2022-07-23T02:01:52;95630.72;;;15.67;100.00
10097;BME280;5087;42.662;23.466;2022-07-23T02:04:20;95646.91;;;15.60;100.00
10097;BME280;5087;42.662;23.466;2022-07-23T02:06:48;95641.88;;;15.37;100.00
10097;BME280;5087;42.662;23.466;2022-07-23T02:09:15;95635.63;;;15.24;100.00
10097;BME280;5087;42.662;23.466;2022-07-23T02:11:42;95627.06;;;15.13;100.00
10097;BME280;5087;42.662;23.466;2022-07-23T02:14:11;95642.44;;;15.18;100.00
10097;BME280;5087;42.662;23.466;2022-07-23T02:16:38;95627.97;;;15.05;100.00
10097;BME280;5087;42.662;23.466;2022-07-23T02:19:06;95644.16;;;15.23;100.00
10097;BME280;5087;42.662;23.466;2022-07-23T02:21:36;95624.19;;;15.10;100.00
10097;BME280;5087;42.662;23.466;2022-07-23T02:24:04;95644.97;;;15.35;100.00
10097;BME280;5087;42.662;23.466;2022-07-23T02:26:31;95647.34;;;15.37;100.00
10097;BME280;5087;42.662;23.466;2022-07-23T02:29:02;95638.38;;;15.24;100.00
10097;BME280;5087;42.662;23.466;2022-07-23T02:31:31;95647.81;;;15.39;100.00
10097;BME280;5087;42.662;23.466;2022-07-23T02:33:58;95649.66;;;15.47;100.00
10097;BME280;5087;42.662;23.466;2022-07-23T02:36:26;95633.78;;;15.41;100.00
10097;BME280;5087;42.662;23.466;2022-07-23T02:38:53;95654.00;;;15.36;100.00
10097;BME280;5087;42.662;23.466;2022-07-23T02:41:21;95656.69;;;15.24;100.00
10097;BME280;5087;42.662;23.466;2022-07-23T02:43:48;95644.56;;;15.00;100.00
10097;BME280;5087;42.662;23.466;2022-07-23T02:46:15;95664.16;;;14.90;100.00
10097;BME280;5087;42.662;23.466;2022-07-23T02:48:44;95659.91;;;14.80;100.00
10097;BME280;5087;42.662;23.466;2022-07-23T02:51:11;95662.44;;;14.64;100.00
10097;BME280;5087;42.662;23.466;2022-07-23T02:53:42;95658.44;;;14.61;100.00
10097;BME280;5087;42.662;23.466;2022-07-23T02:56:09;95665.25;;;14.55;100.00
10097;BME280;5087;42.662;23.466;2022-07-23T02:58:36;95673.00;;;14.53;100.00
10097;BME280;5087;42.662;23.466;2022-07-23T03:01:05;95666.72;;;14.52;100.00
10097;BME280;5087;42.662;23.466;2022-07-23T03:03:33;95668.19;;;14.50;100.00
10097;BME280;5087;42.662;23.466;2022-07-23T03:06:02;95657.47;;;14.45;100.00
10097;BME280;5087;42.662;23.466;2022-07-23T03:08:29;95678.59;;;14.56;100.00
10097;BME280;5087;42.662;23.466;2022-07-23T03:10:56;95660.19;;;14.45;100.00
10097;BME280;5087;42.662;23.466;2022-07-23T03:13:23;95672.84;;;14.49;100.00
10097;BME280;5087;42.662;23.466;2022-07-23T03:15:52;95679.31;;;14.45;100.00
10097;BME280;5087;42.662;23.466;2022-07-23T03:18:19;95689.09;;;14.24;100.00
10097;BME280;5087;42.662;23.466;2022-07-23T03:20:47;95684.50;;;14.16;100.00
10097;BME280;5087;42.662;23.466;2022-07-23T03:23:16;95686.84;;;14.05;100.00
10097;BME280;5087;42.662;23.466;2022-07-23T03:25:43;95687.91;;;14.13;100.00
10097;BME280;5087;42.662;23.466;2022-07-23T03:28:12;95681.50;;;14.09;100.00
10097;BME280;5087;42.662;23.466;2022-07-23T03:30:39;95678.41;;;14.19;100.00
10097;BME280;5087;42.662;23.466;2022-07-23T03:33:07;95692.25;;;14.35;100.00
10097;BME280;5087;42.662;23.466;2022-07-23T03:35:34;95689.78;;;14.43;100.00
10097;BME280;5087;42.662;23.466;2022-07-23T03:38:16;95696.75;;;14.52;100.00
10097;BME280;5087;42.662;23.466;2022-07-23T03:40:43;95700.69;;;14.64;100.00
10097;BME280;5087;42.662;23.466;2022-07-23T03:43:10;95658.84;;;14.51;100.00
10097;BME280;5087;42.662;23.466;2022-07-23T03:45:38;95690.31;;;14.78;100.00
10097;BME280;5087;42.662;23.466;2022-07-23T03:48:05;95683.50;;;14.84;100.00
10097;BME280;5087;42.662;23.466;2022-07-23T03:50:32;95665.03;;;14.81;100.00
10097;BME280;5087;42.662;23.466;2022-07-23T03:53:00;95697.94;;;15.18;100.00
10097;BME280;5087;42.662;23.466;2022-07-23T03:55:29;95692.03;;;15.29;100.00
10097;BME280;5087;42.662;23.466;2022-07-23T03:57:56;95702.88;;;15.38;100.00
10097;BME280;5087;42.662;23.466;2022-07-23T04:00:23;95697.09;;;15.64;100.00
10097;BME280;5087;42.662;23.466;2022-07-23T04:02:51;95696.06;;;15.81;100.00
10097;BME280;5087;42.662;23.466;2022-07-23T04:05:18;95696.06;;;15.81;100.00
10097;BME280;5087;42.662;23.466;2022-07-23T04:07:49;95691.53;;;15.85;100.00
10097;BME280;5087;42.662;23.466;2022-07-23T04:10:18;95704.88;;;16.11;100.00
10097;BME280;5087;42.662;23.466;2022-07-23T04:12:47;95696.88;;;16.19;100.00
10097;BME280;5087;42.662;23.466;2022-07-23T04:15:15;95697.56;;;16.56;100.00
10097;BME280;5087;42.662;23.466;2022-07-23T04:17:42;95687.22;;;16.78;100.00
10097;BME280;5087;42.662;23.466;2022-07-23T04:20:11;95687.03;;;16.99;100.00
10097;BME280;5087;42.662;23.466;2022-07-23T04:22:45;95697.31;;;17.02;100.00
10097;BME280;5087;42.662;23.466;2022-07-23T04:25:13;95701.38;;;17.08;100.00
10097;BME280;5087;42.662;23.466;2022-07-23T04:27:43;95704.78;;;17.18;100.00
10097;BME280;5087;42.662;23.466;2022-07-23T04:30:12;95698.31;;;17.42;100.00
10097;BME280;5087;42.662;23.466;2022-07-23T04:32:40;95703.06;;;17.13;100.00
10097;BME280;5087;42.662;23.466;2022-07-23T04:35:15;95707.75;;;17.13;100.00
10097;BME280;5087;42.662;23.466;2022-07-23T04:37:45;95706.47;;;17.22;100.00
10097;BME280;5087;42.662;23.466;2022-07-23T04:40:14;95700.72;;;17.28;100.00
10097;BME280;5087;42.662;23.466;2022-07-23T04:42:42;95708.34;;;17.34;100.00
10097;BME280;5087;42.662;23.466;2022-07-23T04:45:09;95715.44;;;17.35;100.00
10097;BME280;5087;42.662;23.466;2022-07-23T04:47:38;95711.63;;;17.56;100.00
10097;BME280;5087;42.662;23.466;2022-07-23T04:50:06;95706.47;;;17.86;100.00
10097;BME280;5087;42.662;23.466;2022-07-23T04:52:34;95705.75;;;17.90;100.00
10097;BME280;5087;42.662;23.466;2022-07-23T04:55:02;95704.34;;;18.12;100.00
10097;BME280;5087;42.662;23.466;2022-07-23T04:57:29;95699.03;;;18.19;100.00
10097;BME280;5087;42.662;23.466;2022-07-23T04:59:57;95711.78;;;18.27;100.00
10097;BME280;5087;42.662;23.466;2022-07-23T05:02:24;95717.03;;;18.00;100.00
10097;BME280;5087;42.662;23.466;2022-07-23T05:04:53;95721.72;;;17.84;100.00
10097;BME280;5087;42.662;23.466;2022-07-23T05:07:20;95719.69;;;17.81;100.00
10097;BME280;5087;42.662;23.466;2022-07-23T05:09:48;95706.75;;;17.97;100.00
10097;BME280;5087;42.662;23.466;2022-07-23T05:12:15;95701.53;;;18.08;100.00
10097;BME280;5087;42.662;23.466;2022-07-23T05:14:43;95710.34;;;18.53;100.00
10097;BME280;5087;42.662;23.466;2022-07-23T05:17:10;95705.72;;;19.16;100.00
10097;BME280;5087;42.662;23.466;2022-07-23T05:19:38;95682.94;;;19.39;100.00
10097;BME280;5087;42.662;23.466;2022-07-23T05:22:07;95711.69;;;19.18;100.00
10097;BME280;5087;42.662;23.466;2022-07-23T05:24:34;95713.69;;;19.21;100.00
10097;BME280;5087;42.662;23.466;2022-07-23T05:27:03;95700.47;;;19.07;100.00
10097;BME280;5087;42.662;23.466;2022-07-23T05:29:31;95717.06;;;19.34;100.00
10097;BME280;5087;42.662;23.466;2022-07-23T05:31:59;95713.25;;;20.12;100.00
10097;BME280;5087;42.662;23.466;2022-07-23T05:34:28;95683.38;;;20.41;100.00
10097;BME280;5087;42.662;23.466;2022-07-23T05:36:56;95713.91;;;21.20;100.00
10097;BME280;5087;42.662;23.466;2022-07-23T05:39:25;95713.94;;;21.24;100.00
10097;BME280;5087;42.662;23.466;2022-07-23T05:41:52;95715.72;;;21.43;100.00
10097;BME280;5087;42.662;23.466;2022-07-23T05:44:20;95710.28;;;21.50;100.00
10097;BME280;5087;42.662;23.466;2022-07-23T05:46:47;95706.03;;;21.60;100.00
10097;BME280;5087;42.662;23.466;2022-07-23T05:49:20;95717.53;;;22.10;100.00
10097;BME280;5087;42.662;23.466;2022-07-23T05:51:56;95693.47;;;22.14;100.00
10097;BME280;5087;42.662;23.466;2022-07-23T05:54:35;95717.56;;;22.84;100.00
10097;BME280;5087;42.662;23.466;2022-07-23T05:57:03;95712.22;;;23.24;100.00
10097;BME280;5087;42.662;23.466;2022-07-23T05:59:31;95715.38;;;23.30;100.00
10097;BME280;5087;42.662;23.466;2022-07-23T06:01:59;95713.97;;;22.13;100.00
10097;BME280;5087;42.662;23.466;2022-07-23T06:04:26;95719.34;;;21.92;100.00
10097;BME280;5087;42.662;23.466;2022-07-23T06:07:12;95724.59;;;22.08;100.00
10097;BME280;5087;42.662;23.466;2022-07-23T06:09:41;95705.41;;;22.26;100.00
10097;BME280;5087;42.662;23.466;2022-07-23T06:12:08;95709.66;;;22.83;100.00
10097;BME280;5087;42.662;23.466;2022-07-23T06:14:35;95701.16;;;23.24;100.00
10097;BME280;5087;42.662;23.466;2022-07-23T06:17:03;95715.22;;;22.90;100.00
10097;BME280;5087;42.662;23.466;2022-07-23T06:19:30;95701.97;;;23.50;100.00
10097;BME280;5087;42.662;23.466;2022-07-23T06:21:59;95704.28;;;23.19;100.00
10097;BME280;5087;42.662;23.466;2022-07-23T06:24:28;95699.28;;;22.61;100.00
10097;BME280;5087;42.662;23.466;2022-07-23T06:26:56;95705.63;;;22.62;100.00
10097;BME280;5087;42.662;23.466;2022-07-23T06:29:23;95701.84;;;23.03;100.00
10097;BME280;5087;42.662;23.466;2022-07-23T06:31:51;95681.41;;;23.51;100.00
10097;BME280;5087;42.662;23.466;2022-07-23T06:34:18;95681.41;;;23.58;100.00
10097;BME280;5087;42.662;23.466;2022-07-23T06:36:45;95674.25;;;23.35;100.00
10097;BME280;5087;42.662;23.466;2022-07-23T06:39:13;95683.00;;;23.48;100.00
10097;BME280;5087;42.662;23.466;2022-07-23T06:41:43;95688.16;;;23.86;100.00
10097;BME280;5087;42.662;23.466;2022-07-23T06:44:12;95691.25;;;24.60;100.00
10097;BME280;5087;42.662;23.466;2022-07-23T06:46:42;95680.91;;;24.64;100.00
10097;BME280;5087;42.662;23.466;2022-07-23T06:49:10;95690.72;;;25.09;97.18
10097;BME280;5087;42.662;23.466;2022-07-23T06:51:37;95673.91;;;25.31;92.81
10097;BME280;5087;42.662;23.466;2022-07-23T06:54:05;95678.13;;;24.86;87.74
10097;BME280;5087;42.662;23.466;2022-07-23T06:56:32;95675.50;;;25.32;85.19
10097;BME280;5087;42.662;23.466;2022-07-23T06:58:59;95665.88;;;26.03;81.90
10097;BME280;5087;42.662;23.466;2022-07-23T07:01:27;95649.34;;;26.31;80.55
10097;BME280;5087;42.662;23.466;2022-07-23T07:03:55;95659.22;;;25.90;82.00
10097;BME280;5087;42.662;23.466;2022-07-23T07:06:22;95650.22;;;26.59;74.74
10097;BME280;5087;42.662;23.466;2022-07-23T07:08:49;95665.09;;;26.79;75.79
10097;BME280;5087;42.662;23.466;2022-07-23T07:11:16;95659.72;;;26.23;75.78
10097;BME280;5087;42.662;23.466;2022-07-23T07:13:44;95664.84;;;26.66;72.68
10097;BME280;5087;42.662;23.466;2022-07-23T07:16:11;95632.44;;;27.14;70.92
10097;BME280;5087;42.662;23.466;2022-07-23T07:18:39;95649.94;;;27.15;71.94
10097;BME280;5087;42.662;23.466;2022-07-23T07:21:07;95653.25;;;27.06;71.13
10097;BME280;5087;42.662;23.466;2022-07-23T07:23:34;95660.50;;;27.58;69.47
10097;BME280;5087;42.662;23.466;2022-07-23T07:26:02;95649.84;;;27.77;67.91
10097;BME280;5087;42.662;23.466;2022-07-23T07:28:29;95638.41;;;27.13;70.16
10097;BME280;5087;42.662;23.466;2022-07-23T07:30:56;95638.41;;;26.85;71.05
10097;BME280;5087;42.662;23.466;2022-07-23T07:33:24;95652.16;;;27.27;67.72
10097;BME280;5087;42.662;23.466;2022-07-23T07:35:53;95616.13;;;27.91;65.38
10097;BME280;5087;42.662;23.466;2022-07-23T07:38:20;95641.16;;;28.42;64.57
10097;BME280;5087;42.662;23.466;2022-07-23T07:40:47;95631.34;;;28.34;64.59
10097;BME280;5087;42.662;23.466;2022-07-23T07:43:14;95638.16;;;27.62;67.94
10097;BME280;5087;42.662;23.466;2022-07-23T07:45:41;95626.22;;;27.03;68.75
10097;BME280;5087;42.662;23.466;2022-07-23T07:48:08;95631.63;;;27.41;68.11
10097;BME280;5087;42.662;23.466;2022-07-23T07:50:36;95638.03;;;27.69;69.24
10097;BME280;5087;42.662;23.466;2022-07-23T07:53:04;95625.28;;;27.68;65.80
10097;BME280;5087;42.662;23.466;2022-07-23T07:55:31;95599.53;;;28.08;67.38
10097;BME280;5087;42.662;23.466;2022-07-23T07:57:59;95605.91;;;27.85;66.54
10097;BME280;5087;42.662;23.466;2022-07-23T08:00:26;95619.34;;;27.90;69.22
10097;BME280;5087;42.662;23.466;2022-07-23T08:02:54;95626.72;;;28.88;66.44
10097;BME280;5087;42.662;23.466;2022-07-23T08:05:23;95617.53;;;29.61;65.13
10097;BME280;5087;42.662;23.466;2022-07-23T08:07:51;95619.69;;;29.36;64.79
10097;BME280;5087;42.662;23.466;2022-07-23T08:10:19;95611.50;;;29.46;65.44
10097;BME280;5087;42.662;23.466;2022-07-23T08:12:47;95613.84;;;29.11;62.00
10097;BME280;5087;42.662;23.466;2022-07-23T08:15:16;95600.75;;;29.08;60.29
10097;BME280;5087;42.662;23.466;2022-07-23T08:17:45;95613.19;;;28.86;60.91
10097;BME280;5087;42.662;23.466;2022-07-23T08:20:14;95605.66;;;29.57;59.10
10097;BME280;5087;42.662;23.466;2022-07-23T08:22:46;95603.94;;;30.25;58.40
10097;BME280;5087;42.662;23.466;2022-07-23T08:25:15;95607.81;;;30.74;56.61
10097;BME280;5087;42.662;23.466;2022-07-23T08:27:43;95607.63;;;30.81;54.29
10097;BME280;5087;42.662;23.466;2022-07-23T08:30:11;95607.47;;;29.47;56.44
10097;BME280;5087;42.662;23.466;2022-07-23T08:32:49;95600.56;;;29.68;56.46
10097;BME280;5087;42.662;23.466;2022-07-23T08:35:16;95581.97;;;29.45;55.01
10097;BME280;5087;42.662;23.466;2022-07-23T08:37:43;95604.63;;;30.29;53.46
10097;BME280;5087;42.662;23.466;2022-07-23T08:40:12;95590.97;;;31.03;50.75
10097;BME280;5087;42.662;23.466;2022-07-23T08:42:39;95601.53;;;31.12;52.42
10097;BME280;5087;42.662;23.466;2022-07-23T08:45:08;95590.16;;;31.93;51.48
10097;BME280;5087;42.662;23.466;2022-07-23T08:47:37;95593.31;;;32.17;48.36
10097;BME280;5087;42.662;23.466;2022-07-23T08:50:07;95594.03;;;32.66;47.79
10097;BME280;5087;42.662;23.466;2022-07-23T08:52:36;95597.28;;;31.20;50.02
10097;BME280;5087;42.662;23.466;2022-07-23T08:55:05;95597.28;;;30.65;51.09
10097;BME280;5087;42.662;23.466;2022-07-23T08:57:32;95598.06;;;30.66;52.67
10097;BME280;5087;42.662;23.466;2022-07-23T08:59:59;95597.28;;;30.65;50.42
10097;BME280;5087;42.662;23.466;2022-07-23T09:02:28;95585.84;;;31.28;49.66
10097;BME280;5087;42.662;23.466;2022-07-23T09:04:55;95590.09;;;31.19;50.11
10097;BME280;5087;42.662;23.466;2022-07-23T09:07:22;95585.59;;;31.35;47.53
10097;BME280;5087;42.662;23.466;2022-07-23T09:12:29;95577.75;;;32.61;43.27
10097;BME280;5087;42.662;23.466;2022-07-23T09:15:03;95568.31;;;33.81;42.18
10097;BME280;5087;42.662;23.466;2022-07-23T09:17:37;95555.25;;;34.33;40.77
10097;BME280;5087;42.662;23.466;2022-07-23T09:20:09;95568.00;;;35.09;40.34
10097;BME280;5087;42.662;23.466;2022-07-23T09:22:37;95556.88;;;35.48;37.66
10097;BME280;5087;42.662;23.466;2022-07-23T09:25:10;95543.44;;;35.67;39.09
10097;BME280;5087;42.662;23.466;2022-07-23T09:27:50;95557.38;;;35.46;37.14
10097;BME280;5087;42.662;23.466;2022-07-23T09:30:18;95555.31;;;35.38;35.93
10097;BME280;5087;42.662;23.466;2022-07-23T09:33:03;95555.41;;;35.19;38.22
10097;BME280;5087;42.662;23.466;2022-07-23T09:35:44;95546.47;;;34.31;38.34
10097;BME280;5087;42.662;23.466;2022-07-23T09:38:12;95548.22;;;34.47;36.57
10097;BME280;5087;42.662;23.466;2022-07-23T09:40:39;95535.56;;;35.38;34.76
10097;BME280;5087;42.662;23.466;2022-07-23T09:43:06;95534.09;;;36.24;35.15
10097;BME280;5087;42.662;23.466;2022-07-23T09:45:33;95544.38;;;35.64;33.70
10097;BME280;5087;42.662;23.466;2022-07-23T09:48:13;95531.16;;;35.03;33.96
10097;BME280;5087;42.662;23.466;2022-07-23T09:50:41;95531.75;;;34.18;35.32
10097;BME280;5087;42.662;23.466;2022-07-23T09:53:09;95525.28;;;33.61;36.61
10097;BME280;5087;42.662;23.466;2022-07-23T09:55:37;95519.00;;;33.57;36.16
10097;BME280;5087;42.662;23.466;2022-07-23T09:58:05;95523.91;;;33.75;37.02
10097;BME280;5087;42.662;23.466;2022-07-23T10:00:34;95512.97;;;35.13;32.59
10097;BME280;5087;42.662;23.466;2022-07-23T10:03:01;95512.72;;;35.84;31.95
10097;BME280;5087;42.662;23.466;2022-07-23T10:05:57;95511.06;;;36.71;31.06
10097;BME280;5087;42.662;23.466;2022-07-23T10:08:44;95497.47;;;37.20;29.88
10097;BME280;5087;42.662;23.466;2022-07-23T10:11:40;95486.56;;;37.48;29.21
10097;BME280;5087;42.662;23.466;2022-07-23T10:14:23;95483.75;;;37.33;28.99
10097;BME280;5087;42.662;23.466;2022-07-23T10:16:57;95494.22;;;37.63;29.94
10097;BME280;5087;42.662;23.466;2022-07-23T10:19:24;95492.97;;;37.84;28.32
10097;BME280;5087;42.662;23.466;2022-07-23T10:21:57;95490.97;;;38.32;27.44
10097;BME280;5087;42.662;23.466;2022-07-23T10:24:36;95488.97;;;38.38;27.18
10097;BME280;5087;42.662;23.466;2022-07-23T10:27:22;95476.84;;;38.64;26.17
10097;BME280;5087;42.662;23.466;2022-07-23T10:29:58;95480.91;;;38.10;26.90
10097;BME280;5087;42.662;23.466;2022-07-23T10:32:38;95473.47;;;38.92;26.81
10097;BME280;5087;42.662;23.466;2022-07-23T10:35:13;95447.03;;;37.18;27.34
10097;BME280;5087;42.662;23.466;2022-07-23T10:37:47;95469.13;;;37.35;27.03
10097;BME280;5087;42.662;23.466;2022-07-23T10:40:16;95469.88;;;37.71;29.57
10097;BME280;5087;42.662;23.466;2022-07-23T10:42:44;95469.19;;;37.97;28.38
10097;BME280;5087;42.662;23.466;2022-07-23T10:45:32;95467.06;;;37.50;28.42
10097;BME280;5087;42.662;23.466;2022-07-23T10:48:13;95461.81;;;37.84;28.69
10097;BME280;5087;42.662;23.466;2022-07-23T10:50:41;95456.69;;;37.12;27.98
10097;BME280;5087;42.662;23.466;2022-07-23T10:53:15;95437.28;;;37.61;27.67
10097;BME280;5087;42.662;23.466;2022-07-23T10:55:48;95453.94;;;37.17;27.53
10097;BME280;5087;42.662;23.466;2022-07-23T10:58:46;95445.78;;;38.02;26.78
10097;BME280;5087;42.662;23.466;2022-07-23T11:01:33;95430.25;;;37.50;27.42
10097;BME280;5087;42.662;23.466;2022-07-23T11:04:00;95435.91;;;37.50;26.81
10097;BME280;5087;42.662;23.466;2022-07-23T11:09:39;95430.72;;;37.13;27.38
10097;BME280;5087;42.662;23.466;2022-07-23T11:12:34;95427.94;;;37.34;26.81
10097;BME280;5087;42.662;23.466;2022-07-23T11:15:06;95432.56;;;37.93;25.65
10097;BME280;5087;42.662;23.466;2022-07-23T11:17:36;95420.91;;;38.70;25.33
10097;BME280;5087;42.662;23.466;2022-07-23T11:20:15;95404.69;;;39.08;24.28
10097;BME280;5087;42.662;23.466;2022-07-23T11:22:49;95425.06;;;39.07;23.77
10097;BME280;5087;42.662;23.466;2022-07-23T11:25:34;95422.59;;;38.51;24.05
10097;BME280;5087;42.662;23.466;2022-07-23T11:28:13;95396.66;;;37.64;24.42
10097;BME280;5087;42.662;23.466;2022-07-23T11:30:42;95416.28;;;36.60;26.35
10097;BME280;5087;42.662;23.466;2022-07-23T11:33:21;95417.44;;;34.54;27.24
10097;BME280;5087;42.662;23.466;2022-07-23T11:36:00;95409.50;;;34.77;27.85
10097;BME280;5087;42.662;23.466;2022-07-23T11:38:31;95402.31;;;34.33;28.38
10097;BME280;5087;42.662;23.466;2022-07-23T11:41:00;95402.63;;;34.78;25.98
10097;BME280;5087;42.662;23.466;2022-07-23T11:43:27;95397.16;;;34.22;27.64
10097;BME280;5087;42.662;23.466;2022-07-23T11:45:59;95403.84;;;34.52;27.01
10097;BME280;5087;42.662;23.466;2022-07-23T11:48:28;95407.25;;;34.99;27.79
10097;BME280;5087;42.662;23.466;2022-07-23T11:50:57;95393.84;;;35.43;28.58
10097;BME280;5087;42.662;23.466;2022-07-23T11:53:25;95391.19;;;35.78;28.31
10097;BME280;5087;42.662;23.466;2022-07-23T11:55:53;95388.34;;;36.48;25.15
10097;BME280;5087;42.662;23.466;2022-07-23T11:58:23;95354.41;;;37.19;24.80
10097;BME280;5087;42.662;23.466;2022-07-23T12:00:50;95377.13;;;37.87;25.45
10097;BME280;5087;42.662;23.466;2022-07-23T12:03:18;95386.53;;;37.57;24.43
10097;BME280;5087;42.662;23.466;2022-07-23T12:05:45;95380.88;;;36.80;23.63
10097;BME280;5087;42.662;23.466;2022-07-23T12:08:12;95382.97;;;36.85;24.16
10097;BME280;5087;42.662;23.466;2022-07-23T12:10:41;95376.84;;;36.51;24.60
10097;BME280;5087;42.662;23.466;2022-07-23T12:13:10;95366.97;;;37.80;23.92
10097;BME280;5087;42.662;23.466;2022-07-23T12:15:40;95363.72;;;37.87;23.30
10097;BME280;5087;42.662;23.466;2022-07-23T12:18:11;95365.97;;;38.68;24.00
10097;BME280;5087;42.662;23.466;2022-07-23T12:20:40;95358.88;;;38.84;22.49
10097;BME280;5087;42.662;23.466;2022-07-23T12:23:09;95362.16;;;37.86;24.02
10097;BME280;5087;42.662;23.466;2022-07-23T12:25:38;95346.41;;;37.59;23.28
10097;BME280;5087;42.662;23.466;2022-07-23T12:28:07;95341.63;;;37.91;23.17
10097;BME280;5087;42.662;23.466;2022-07-23T12:30:40;95359.84;;;37.02;23.61
10097;BME280;5087;42.662;23.466;2022-07-23T12:33:08;95344.28;;;37.12;25.21
10097;BME280;5087;42.662;23.466;2022-07-23T12:35:38;95341.31;;;37.21;24.05
10097;BME280;5087;42.662;23.466;2022-07-23T12:38:08;95343.25;;;37.77;23.21
10097;BME280;5087;42.662;23.466;2022-07-23T12:40:42;95346.16;;;37.83;22.39
10097;BME280;5087;42.662;23.466;2022-07-23T12:43:11;95347.28;;;38.50;21.67
10097;BME280;5087;42.662;23.466;2022-07-23T12:45:48;95328.53;;;38.26;21.38
10097;BME280;5087;42.662;23.466;2022-07-23T12:48:22;95339.66;;;38.67;21.52
10097;BME280;5087;42.662;23.466;2022-07-23T12:50:52;95332.22;;;38.75;20.81
10097;BME280;5087;42.662;23.466;2022-07-23T12:53:22;95324.09;;;38.19;20.94
10097;BME280;5087;42.662;23.466;2022-07-23T12:55:51;95334.13;;;38.20;20.61
10097;BME280;5087;42.662;23.466;2022-07-23T12:58:23;95325.47;;;38.67;21.33
10097;BME280;5087;42.662;23.466;2022-07-23T13:01:03;95328.91;;;38.39;19.79
10097;BME280;5087;42.662;23.466;2022-07-23T13:03:33;95326.97;;;38.25;19.37
10097;BME280;5087;42.662;23.466;2022-07-23T13:06:02;95316.91;;;38.56;21.10
10097;BME280;5087;42.662;23.466;2022-07-23T13:08:30;95316.91;;;38.56;20.73
10097;BME280;5087;42.662;23.466;2022-07-23T13:10:58;95310.44;;;38.55;21.26
10097;BME280;5087;42.662;23.466;2022-07-23T13:13:27;95316.25;;;38.72;20.38